UAE215 OMDB-KLAX
Flight info
| Callsign | UAE215 |
|---|---|
| Flight time | N/A |
| Altitude | 28000 |
| Route | DAVMO M318 GABKO M317 ROTAL P574 SYZ P550 RASLA/N0504F300 P550 DASIS UL746 ODERO DCT LAPKA/N0487F320 DCT ETEPA DCT SAT DCT KENIN DCT LENOV L623 ADVAB L619 DENKO L996 VAVUN M602 BINKA DCT MASOR DCT NEDIK DCT VAXIT DCT ARTEX DCT LAMRO DCT ATSIX/M084F340 DCT 62N020W 63N030W 63N040W 62N050W DCT PIDSO N950B MUSLO/N0494F340 N950B RODBO DCT TUNNI/N0499F360 DCT LENUT DCT GOSEP DCT YER DCT EPVUM DCT DUVIS DCT KERBI DCT 49N099W DCT OGSIQ/N0476F380 DCT MLDRD DCT RECAP DCT CZI DCT OCS J107 MLF DCT HAKMN ANJLL4 |
| Aircraft | B77W/H-SDE1E2E3FGHIJ2J3J4J5M1RWXY/LB1D1 |
Departure
| Time | N/A |
|---|---|
| Airport | Dubai International Airport (OMDB) |
Arrival
| Time | 2026-04-20 15:29 |
|---|---|
| Airport | Los Angeles International Airport (KLAX) |
| Time | Latitude | Longitude | Altitude | Speed | Heading |
|---|---|---|---|---|---|
| 2026-04-20 14:42 | 37.25506 | -113.83536 | 37992 ft | 486 kts | 215° |
| 2026-04-20 14:42 | 37.19646 | -113.87821 | 37996 ft | 487 kts | 215° |
| 2026-04-20 14:43 | 37.13776 | -113.92103 | 37975 ft | 488 kts | 215° |
| 2026-04-20 14:43 | 37.07903 | -113.96378 | 37963 ft | 488 kts | 215° |
| 2026-04-20 14:44 | 37.02065 | -114.00619 | 37947 ft | 488 kts | 215° |
| 2026-04-20 14:44 | 36.96187 | -114.04886 | 37948 ft | 488 kts | 215° |
| 2026-04-20 14:45 | 36.90312 | -114.09140 | 37943 ft | 488 kts | 214° |
| 2026-04-20 14:45 | 36.84424 | -114.13394 | 37925 ft | 488 kts | 215° |
| 2026-04-20 14:46 | 36.78538 | -114.17647 | 37919 ft | 488 kts | 214° |
| 2026-04-20 14:46 | 36.72645 | -114.21889 | 37921 ft | 489 kts | 214° |
| 2026-04-20 14:47 | 36.66750 | -114.26128 | 37924 ft | 490 kts | 214° |
| 2026-04-20 14:48 | 36.57928 | -114.32455 | 37909 ft | 490 kts | 214° |
| 2026-04-20 14:48 | 36.52019 | -114.36687 | 37899 ft | 490 kts | 214° |
| 2026-04-20 14:49 | 36.46105 | -114.40912 | 37897 ft | 490 kts | 214° |
| 2026-04-20 14:49 | 36.40190 | -114.45130 | 37893 ft | 489 kts | 214° |
| 2026-04-20 14:50 | 36.34281 | -114.49333 | 37896 ft | 489 kts | 214° |
| 2026-04-20 14:50 | 36.28380 | -114.53531 | 37887 ft | 489 kts | 214° |
| 2026-04-20 14:51 | 36.22477 | -114.57719 | 37890 ft | 489 kts | 214° |
| 2026-04-20 14:51 | 36.16561 | -114.61913 | 37902 ft | 490 kts | 214° |
| 2026-04-20 14:52 | 36.10652 | -114.66087 | 37937 ft | 490 kts | 214° |
| 2026-04-20 14:52 | 36.04721 | -114.70274 | 37968 ft | 491 kts | 214° |
| 2026-04-20 14:53 | 35.98787 | -114.74454 | 37983 ft | 491 kts | 213° |
| 2026-04-20 14:53 | 35.92894 | -114.78602 | 37995 ft | 491 kts | 213° |
| 2026-04-20 14:54 | 35.86941 | -114.82779 | 37999 ft | 491 kts | 213° |
| 2026-04-20 14:54 | 35.80995 | -114.86947 | 37941 ft | 491 kts | 213° |
| 2026-04-20 14:55 | 35.75052 | -114.91104 | 37950 ft | 491 kts | 213° |
| 2026-04-20 14:55 | 35.69145 | -114.95232 | 37960 ft | 491 kts | 213° |
| 2026-04-20 14:56 | 35.63196 | -114.99379 | 37966 ft | 491 kts | 213° |
| 2026-04-20 14:56 | 35.57246 | -115.03521 | 37974 ft | 491 kts | 213° |
| 2026-04-20 14:57 | 35.51324 | -115.07672 | 37981 ft | 488 kts | 217° |
| 2026-04-20 14:57 | 35.48712 | -115.10266 | 37973 ft | 478 kts | 230° |
| 2026-04-20 14:57 | 35.46459 | -115.13250 | 37959 ft | 478 kts | 232° |
| 2026-04-20 14:58 | 35.42019 | -115.19334 | 37996 ft | 478 kts | 232° |
| 2026-04-20 14:58 | 35.37501 | -115.25357 | 37997 ft | 481 kts | 231° |
| 2026-04-20 14:59 | 35.32910 | -115.31345 | 38008 ft | 482 kts | 231° |
| 2026-04-20 14:59 | 35.28298 | -115.37315 | 38000 ft | 483 kts | 230° |
| 2026-04-20 15:00 | 35.23679 | -115.43297 | 38004 ft | 483 kts | 230° |
| 2026-04-20 15:00 | 35.19099 | -115.49220 | 37997 ft | 482 kts | 230° |
| 2026-04-20 15:01 | 35.14502 | -115.55163 | 38008 ft | 481 kts | 230° |
| 2026-04-20 15:01 | 35.09893 | -115.61093 | 37999 ft | 480 kts | 230° |
| 2026-04-20 15:02 | 35.05277 | -115.66987 | 38000 ft | 479 kts | 230° |
| 2026-04-20 15:02 | 35.00671 | -115.72865 | 37997 ft | 478 kts | 230° |
| 2026-04-20 15:03 | 34.96075 | -115.78722 | 37991 ft | 478 kts | 230° |
| 2026-04-20 15:03 | 34.92253 | -115.83588 | 37986 ft | 478 kts | 230° |
| 2026-04-20 15:04 | 34.87643 | -115.89448 | 37982 ft | 478 kts | 230° |
| 2026-04-20 15:04 | 34.83030 | -115.95299 | 37970 ft | 479 kts | 229° |
| 2026-04-20 15:05 | 34.78416 | -116.01142 | 37972 ft | 478 kts | 229° |
| 2026-04-20 15:05 | 34.73810 | -116.06985 | 37979 ft | 478 kts | 229° |
| 2026-04-20 15:06 | 34.69210 | -116.12850 | 37971 ft | 479 kts | 229° |
| 2026-04-20 15:06 | 34.64619 | -116.18697 | 37349 ft | 488 kts | 229° |
| 2026-04-20 15:06 | 34.62263 | -116.21694 | 36627 ft | 489 kts | 229° |
| 2026-04-20 15:07 | 34.59910 | -116.24677 | 35842 ft | 487 kts | 229° |
| 2026-04-20 15:07 | 34.57570 | -116.27642 | 34986 ft | 487 kts | 229° |
| 2026-04-20 15:07 | 34.55222 | -116.30614 | 34086 ft | 488 kts | 228° |
| 2026-04-20 15:07 | 34.52874 | -116.33584 | 33047 ft | 489 kts | 228° |
| 2026-04-20 15:08 | 34.50518 | -116.36562 | 32037 ft | 488 kts | 228° |
| 2026-04-20 15:08 | 34.48165 | -116.39534 | 31009 ft | 489 kts | 227° |
| 2026-04-20 15:08 | 34.45813 | -116.42500 | 30183 ft | 485 kts | 227° |
| 2026-04-20 15:08 | 34.43486 | -116.45431 | 29381 ft | 480 kts | 227° |
| 2026-04-20 15:09 | 34.41297 | -116.48434 | 28606 ft | 472 kts | 235° |
| 2026-04-20 15:09 | 34.39717 | -116.51815 | 27926 ft | 464 kts | 246° |
| 2026-04-20 15:09 | 34.38402 | -116.55347 | 27235 ft | 458 kts | 246° |
| 2026-04-20 15:09 | 34.37080 | -116.58818 | 26855 ft | 446 kts | 245° |
| 2026-04-20 15:10 | 34.35751 | -116.62146 | 26662 ft | 432 kts | 244° |
| 2026-04-20 15:10 | 34.34432 | -116.65345 | 26484 ft | 418 kts | 244° |
| 2026-04-20 15:10 | 34.33146 | -116.68447 | 26208 ft | 407 kts | 244° |
| 2026-04-20 15:10 | 34.31897 | -116.71517 | 25692 ft | 405 kts | 244° |
| 2026-04-20 15:11 | 34.30673 | -116.74566 | 25189 ft | 401 kts | 244° |
| 2026-04-20 15:11 | 34.29462 | -116.77591 | 24710 ft | 399 kts | 244° |
| 2026-04-20 15:11 | 34.28256 | -116.80599 | 24207 ft | 396 kts | 244° |
| 2026-04-20 15:11 | 34.27055 | -116.83588 | 23703 ft | 394 kts | 244° |
| 2026-04-20 15:12 | 34.25856 | -116.86561 | 23134 ft | 392 kts | 244° |
| 2026-04-20 15:12 | 34.24681 | -116.89476 | 22625 ft | 389 kts | 244° |
| 2026-04-20 15:12 | 34.23500 | -116.92398 | 22116 ft | 385 kts | 244° |
| 2026-04-20 15:12 | 34.22329 | -116.95291 | 21620 ft | 382 kts | 244° |
| 2026-04-20 15:13 | 34.21172 | -116.98160 | 21146 ft | 378 kts | 244° |
| 2026-04-20 15:13 | 34.20198 | -117.01109 | 20671 ft | 376 kts | 251° |
| 2026-04-20 15:13 | 34.19426 | -117.04119 | 20209 ft | 373 kts | 252° |
| 2026-04-20 15:13 | 34.18692 | -117.07108 | 19728 ft | 371 kts | 252° |
| 2026-04-20 15:14 | 34.17923 | -117.10088 | 19257 ft | 370 kts | 251° |
| 2026-04-20 15:14 | 34.17135 | -117.13029 | 18782 ft | 368 kts | 251° |
| 2026-04-20 15:14 | 34.16337 | -117.15970 | 18308 ft | 367 kts | 250° |
| 2026-04-20 15:14 | 34.15543 | -117.18856 | 17874 ft | 366 kts | 250° |
| 2026-04-20 15:15 | 34.14730 | -117.21808 | 17364 ft | 365 kts | 250° |
| 2026-04-20 15:15 | 34.13933 | -117.24705 | 16878 ft | 362 kts | 250° |
| 2026-04-20 15:15 | 34.13154 | -117.27537 | 16382 ft | 361 kts | 250° |
| 2026-04-20 15:15 | 34.12361 | -117.30413 | 15888 ft | 359 kts | 250° |
| 2026-04-20 15:16 | 34.11574 | -117.33263 | 15418 ft | 357 kts | 250° |
| 2026-04-20 15:16 | 34.10793 | -117.36090 | 14946 ft | 355 kts | 249° |
| 2026-04-20 15:16 | 34.10035 | -117.38918 | 14477 ft | 353 kts | 251° |
| 2026-04-20 15:16 | 34.09331 | -117.41756 | 14006 ft | 352 kts | 251° |
| 2026-04-20 15:17 | 34.08635 | -117.44585 | 13503 ft | 351 kts | 251° |
| 2026-04-20 15:17 | 34.07948 | -117.47351 | 13173 ft | 344 kts | 251° |
| 2026-04-20 15:17 | 34.07267 | -117.50062 | 12980 ft | 334 kts | 250° |
| 2026-04-20 15:17 | 34.06441 | -117.52660 | 12542 ft | 331 kts | 244° |
| 2026-04-20 15:18 | 34.05497 | -117.55186 | 12123 ft | 328 kts | 243° |
| 2026-04-20 15:18 | 34.04549 | -117.57682 | 11714 ft | 327 kts | 243° |
| 2026-04-20 15:18 | 34.03620 | -117.60179 | 11304 ft | 325 kts | 244° |
| 2026-04-20 15:18 | 34.02713 | -117.62667 | 10892 ft | 324 kts | 244° |
| 2026-04-20 15:19 | 34.01814 | -117.65155 | 10512 ft | 322 kts | 244° |
| 2026-04-20 15:19 | 34.00938 | -117.67598 | 10373 ft | 312 kts | 246° |
| 2026-04-20 15:19 | 34.00375 | -117.70073 | 10222 ft | 303 kts | 259° |
| 2026-04-20 15:19 | 34.00153 | -117.72534 | 10096 ft | 295 kts | 262° |
| 2026-04-20 15:20 | 33.99971 | -117.74957 | 9837 ft | 289 kts | 262° |
| 2026-04-20 15:20 | 33.99779 | -117.77375 | 9465 ft | 288 kts | 262° |
| 2026-04-20 15:20 | 33.99562 | -117.79776 | 9109 ft | 286 kts | 261° |
| 2026-04-20 15:20 | 33.99336 | -117.82148 | 8761 ft | 284 kts | 261° |
| 2026-04-20 15:21 | 33.99112 | -117.84481 | 8411 ft | 283 kts | 261° |
| 2026-04-20 15:21 | 33.98884 | -117.86834 | 8066 ft | 282 kts | 261° |
| 2026-04-20 15:21 | 33.98669 | -117.89172 | 7716 ft | 281 kts | 262° |
| 2026-04-20 15:21 | 33.98498 | -117.91491 | 7375 ft | 279 kts | 262° |
| 2026-04-20 15:22 | 33.98299 | -117.93817 | 7040 ft | 278 kts | 261° |
| 2026-04-20 15:22 | 33.98073 | -117.96126 | 6699 ft | 277 kts | 261° |
| 2026-04-20 15:22 | 33.97839 | -117.98428 | 6355 ft | 276 kts | 261° |
| 2026-04-20 15:22 | 33.97604 | -118.00721 | 6000 ft | 275 kts | 261° |
| 2026-04-20 15:23 | 33.97370 | -118.02982 | 5657 ft | 275 kts | 261° |
| 2026-04-20 15:23 | 33.97144 | -118.05167 | 5331 ft | 274 kts | 262° |
| 2026-04-20 15:23 | 33.96910 | -118.07442 | 5065 ft | 270 kts | 262° |
| 2026-04-20 15:23 | 33.96682 | -118.09672 | 4726 ft | 269 kts | 262° |
| 2026-04-20 15:24 | 33.96469 | -118.11740 | 4405 ft | 269 kts | 262° |
| 2026-04-20 15:24 | 33.96242 | -118.13946 | 4016 ft | 259 kts | 262° |
| 2026-04-20 15:24 | 33.96026 | -118.16050 | 3714 ft | 247 kts | 263° |
| 2026-04-20 15:24 | 33.95820 | -118.18056 | 3418 ft | 237 kts | 263° |
| 2026-04-20 15:25 | 33.95620 | -118.20000 | 3117 ft | 231 kts | 263° |
| 2026-04-20 15:25 | 33.95432 | -118.21890 | 2772 ft | 226 kts | 262° |
| 2026-04-20 15:25 | 33.95236 | -118.23767 | 2400 ft | 221 kts | 263° |
| 2026-04-20 15:25 | 33.95052 | -118.25544 | 2134 ft | 203 kts | 262° |
| 2026-04-20 15:26 | 33.94934 | -118.26587 | 1985 ft | 194 kts | 262° |
| 2026-04-20 15:26 | 33.94919 | -118.26717 | 1963 ft | 193 kts | 262° |
| 2026-04-20 15:26 | 33.94726 | -118.28315 | 1774 ft | 193 kts | 262° |
| 2026-04-20 15:26 | 33.94583 | -118.29862 | 1645 ft | 179 kts | 263° |
| 2026-04-20 15:27 | 33.94454 | -118.31292 | 1299 ft | 165 kts | 263° |
| 2026-04-20 15:27 | 33.94322 | -118.32584 | 1042 ft | 149 kts | 263° |
| 2026-04-20 15:27 | 33.94203 | -118.33755 | 826 ft | 148 kts | 263° |
| 2026-04-20 15:27 | 33.94060 | -118.35016 | 664 ft | 148 kts | 264° |
| 2026-04-20 15:28 | 33.93948 | -118.36235 | 464 ft | 146 kts | 263° |
| 2026-04-20 15:28 | 33.93823 | -118.37434 | 268 ft | 143 kts | 264° |
| 2026-04-20 15:28 | 33.93702 | -118.38608 | 111 ft | 136 kts | 264° |
| 2026-04-20 15:28 | 33.93599 | -118.39616 | 101 ft | 105 kts | 263° |
| 2026-04-20 15:29 | 33.93529 | -118.40303 | 99 ft | 66 kts | 263° |
| 2026-04-20 15:29 | 33.93479 | -118.40802 | 98 ft | 45 kts | 265° |
| 2026-04-20 15:29 | 33.93509 | -118.41086 | 101 ft | 25 kts | 290° |
| 2026-04-20 15:29 | 33.93551 | -118.41233 | 99 ft | 0 kts | 312° |
| 2026-04-20 15:30 | 33.93592 | -118.41256 | 102 ft | 10 kts | 340° |
| 2026-04-20 15:30 | 33.93662 | -118.41272 | 102 ft | 10 kts | 354° |
| 2026-04-20 15:30 | 33.93734 | -118.41262 | 104 ft | 11 kts | 42° |
| 2026-04-20 15:31 | 33.93767 | -118.41175 | 101 ft | 12 kts | 48° |
| 2026-04-20 15:31 | 33.93849 | -118.41161 | 100 ft | 13 kts | 356° |
| 2026-04-20 15:31 | 33.93936 | -118.41171 | 99 ft | 13 kts | 353° |
| 2026-04-20 15:31 | 33.94023 | -118.41185 | 99 ft | 13 kts | 353° |
| 2026-04-20 15:32 | 33.94086 | -118.41169 | 98 ft | 8 kts | 63° |
| 2026-04-20 15:32 | 33.94096 | -118.41107 | 99 ft | 3 kts | 82° |
| 2026-04-20 15:32 | 33.94100 | -118.41081 | 99 ft | 2 kts | 82° |
| 2026-04-20 15:32 | 33.94100 | -118.41080 | 98 ft | 0 kts | 82° |